GIA6128 WAHQ-WIMM
Flight info
| Callsign | GIA6128 |
|---|---|
| Flight time | N/A |
| Altitude | 40000 |
| Route | WAHQ/26 N0457F400 PURW1B PURWO W17N KIDET DCT ENSAV T10 AKPER AKPE1A WIMM/05 |
| Aircraft | A333/H-VGDW/C |
Departure
| Time | 2026-05-06 07:00 |
|---|---|
| Airport | Adisoemarmo International Airport (WAHQ) |
Arrival
| Time | N/A |
|---|---|
| Airport | Kualanamu International Airport (WIMM) |
| Time | Latitude | Longitude | Altitude | Speed | Heading |
|---|---|---|---|---|---|
| 2026-05-06 06:41 | -7.51438 | 110.74938 | 418 ft | 0 kts | 347° |
| 2026-05-06 06:51 | -7.51447 | 110.74940 | 418 ft | 3 kts | 347° |
| 2026-05-06 06:51 | -7.51460 | 110.74943 | 418 ft | 3 kts | 347° |
| 2026-05-06 06:51 | -7.51480 | 110.74947 | 409 ft | 3 kts | 336° |
| 2026-05-06 06:52 | -7.51496 | 110.74959 | 418 ft | 3 kts | 288° |
| 2026-05-06 06:52 | -7.51497 | 110.74979 | 418 ft | 3 kts | 258° |
| 2026-05-06 06:52 | -7.51497 | 110.74982 | 418 ft | 0 kts | 258° |
| 2026-05-06 06:55 | -7.51497 | 110.74980 | 418 ft | 1 kts | 258° |
| 2026-05-06 06:55 | -7.51500 | 110.74965 | 408 ft | 3 kts | 258° |
| 2026-05-06 06:55 | -7.51512 | 110.74937 | 408 ft | 5 kts | 238° |
| 2026-05-06 06:56 | -7.51544 | 110.74917 | 418 ft | 6 kts | 192° |
| 2026-05-06 06:56 | -7.51588 | 110.74921 | 410 ft | 7 kts | 173° |
| 2026-05-06 06:56 | -7.51646 | 110.74932 | 417 ft | 11 kts | 169° |
| 2026-05-06 06:56 | -7.51721 | 110.74948 | 416 ft | 10 kts | 167° |
| 2026-05-06 06:57 | -7.51779 | 110.74926 | 413 ft | 10 kts | 238° |
| 2026-05-06 06:57 | -7.51798 | 110.74858 | 416 ft | 11 kts | 257° |
| 2026-05-06 06:57 | -7.51817 | 110.74777 | 416 ft | 13 kts | 257° |
| 2026-05-06 06:57 | -7.51838 | 110.74686 | 414 ft | 11 kts | 255° |
| 2026-05-06 06:58 | -7.51878 | 110.74617 | 408 ft | 7 kts | 244° |
| 2026-05-06 06:58 | -7.51868 | 110.74605 | 405 ft | 2 kts | 341° |
| 2026-05-06 06:58 | -7.51855 | 110.74622 | 407 ft | 7 kts | 62° |
| 2026-05-06 06:58 | -7.51841 | 110.74676 | 413 ft | 0 kts | 77° |
| 2026-05-06 06:59 | -7.51840 | 110.74678 | 413 ft | 0 kts | 77° |
| 2026-05-06 06:59 | -7.51836 | 110.74696 | 414 ft | 12 kts | 77° |
| 2026-05-06 06:59 | -7.51770 | 110.74993 | 408 ft | 77 kts | 77° |
| 2026-05-06 06:59 | -7.51590 | 110.75790 | 417 ft | 156 kts | 77° |
| 2026-05-06 07:00 | -7.51328 | 110.76979 | 1144 ft | 181 kts | 78° |
| 2026-05-06 07:00 | -7.51037 | 110.78224 | 2258 ft | 182 kts | 77° |
| 2026-05-06 07:00 | -7.50436 | 110.79386 | 2786 ft | 203 kts | 44° |
| 2026-05-06 07:00 | -7.49043 | 110.79953 | 3044 ft | 238 kts | 2° |
| 2026-05-06 07:01 | -7.47358 | 110.79506 | 3411 ft | 263 kts | 334° |
| 2026-05-06 07:01 | -7.45726 | 110.78580 | 4091 ft | 273 kts | 330° |
| 2026-05-06 07:01 | -7.44073 | 110.77616 | 4867 ft | 277 kts | 332° |
| 2026-05-06 07:01 | -7.42399 | 110.76686 | 5655 ft | 280 kts | 333° |
| 2026-05-06 07:02 | -7.40668 | 110.75758 | 6463 ft | 283 kts | 334° |
| 2026-05-06 07:02 | -7.38802 | 110.75125 | 7292 ft | 285 kts | 354° |
| 2026-05-06 07:02 | -7.36816 | 110.75020 | 8159 ft | 287 kts | 1° |
| 2026-05-06 07:02 | -7.34812 | 110.75036 | 8981 ft | 290 kts | 2° |
| 2026-05-06 07:03 | -7.32785 | 110.75072 | 9754 ft | 294 kts | 2° |
| 2026-05-06 07:03 | -7.30707 | 110.75105 | 10403 ft | 305 kts | 2° |
| 2026-05-06 07:03 | -7.29273 | 110.75125 | 10628 ft | 318 kts | 2° |